Terminal Aerodrome Forecast
Issued by NWS Shreveport, LA

Home | Current Version | Previous Version | Text Only | Print | Product List | Glossary On
Versions: 1 2 3 4 5 6 7 8 9 10 11 12 13 14 15 16 17 18 19 20
377
FTUS44 KSHV 181134
TAFGGG
TAF
KGGG 181134Z 1812/1912 VRB04KT 6SM -RA BR SCT005 OVC007
      TEMPO 1812/1816 4SM -SHRA BR OVC005
     FM181600 07005KT 6SM -RA BR OVC006
     FM181800 07004KT 5SM -SHRA BR OVC005
     FM182100 04004KT 2SM -RA BR OVC004
     FM190300 VRB03KT 2SM BR VCSH OVC004=

USA.gov is the U.S. government's official web portal to all federal, state and local government web resources and services.